Alama Iqbal International Airport
OPLA : now visible

Airfield :











YOU CAN JOIN US ON...

 
LOGIN :

Register | Disclaimer

   EN    FR    IT 

 









Legend :    VFR   Marginal VFR   IFR   Intensive IFR   Very Intensive IFR
Visi :
Ceiling :
>= 8 km
>= 3000ft
5 to 8 km
1000 to 3000 ft
1500m to 5 km
500 to 1000 ft
800 to 1500m
200 to 500 ft
< 800m
< 200 ft
Symbols :   Thunderstorms  Fog  Heavy snow  Heavy precipitations  Wind > 20 kt






- Airport Elevation : 712 ft
- IATA code : LHE


OPLA - Alama Iqbal International

CURRENT METAR :
  • 251055Z 34006KT 4000 DZ SCT040 SCT100 18/01 Q1016 NOSIG RMK QFE990 RMK A29.99

EXPIRED METARs :
  • 251025Z 34008KT 4000 HZ SCT040 BKN100 18/M02 Q1016 RMK QFE990 RMK A29.99
  • 250955Z 36008KT 4000 HZ SCT040 BKN100 19/M02 Q1016 NOSIG QFE990 RMK A29.99
  • 250925Z 36004KT 4000 HZ SCT040 BKN100 19/M01 Q1016 RMK QFE990 RMK A29.99
  • 250855Z 36004KT 4000 HZ SCT040 BKN100 19/M01 Q1016 TEMPO 32015G25KT 1500 TSRA FEW030CB RMK QFE990 RMK A29.99
  • 250825Z 27003KT 3500 HZ SCT040 SCT100 19/01 Q1017 RMK QFE991 RMK A30.03

TAF TAF OPLA
Valid from the 25 at 06:00 until the 26 at 12:00 UTC


250345Z 2506/2612 29004KT 4000 FU SCT100 TX20/2610 TN07/2601
BECMG 2508/2512 29006KT 7000
TEMPO 2601/2605 00000KT 2000 BR
BECMG 2608/2612 33005KT 7000



MET'MAP, your aeronautical weather chart ! - Copyright ORBIFLY December 2007 - Disclaimer

ORBIFLY MET'MAP TEAM :

Programming & Development : Alexandra Zaïnal
Concept & original design : Baudouin d'Aumeries
Assistance for programming : Marc-Olivier Méhu
Technical & hardware support : Manuel Goepfert

Contact : metmap@orbifly.com




SOURCES & CREDITS :

   NOAA       Earth
Advisory